UKLLLZTT

Guest
Details From UKLL - LVIV INTL
To LZTT - POPRAD TATRY
Flight Number -
Tags generated
Created
Modified
Stats Distance 152 nm / 281 km
Max Altitude 18,200 ft / 5,547 m
Waypoints 3
Social Downloads 16
Likes 0
Share VATSIM

Download

Looking for another format? Having issues loading an existing format? Contact us
Advertisement - Login to hide

Notes

Basic altitude profile: - Ascent Rate: 17000ft/min - Ascent Speed: 250kts - Cruise Altitude: 35000ft - Cruise Speed: 420kts - Descent Rate: 1500ft/min - Descent Speed: 250kts Options: - Use NATs: yes - Use PACOTS: yes - Use low airways: yes - Use high airways: yes

Route

UKLL TEPNA LZTT

ID Type Via Altitude Latitude Longitude Leg Dist Tot Dist Heading (true) Name
O UKLL APT - 0 ft / 0 m 49.81264˚ 23.95611˚ - 0 nm - LVIV INTL
TEPNA FIX - 18,200 ft / 5,547 m 49.50472˚ 22.65611˚ 53 nm 53 nm 250° / 249° -
O LZTT APT - 0 ft / 0 m 49.07216˚ 20.24126˚ 98 nm 151 nm 256° / 254° POPRAD TATRY

Altitude Profile

Advertisement - Login to hide

UKLL

Details ICAO UKLL (LWO)
Name LVIV INTL
Region Ukraine
Timezone Europe/Kiev (UTC+2.0)
Stats Elevation 1,071 ft / 326 m (AMSL)
Location 49.812638° 23.956111°
Runways 1
Magnetic Variation 6.101° E

METAR

UKLL 182030Z 31004MPS 9999 OVC009 M04/M05 Q1022 R31/190070 NOSIG

Decode

TAF

TAF UKLL 181704Z 1818/1918 33004MPS 4000 BR SCT003 OVC006 TEMPO 1818/1906 0400 -SHSN FZFG BKN002 BKN020CB BECMG 1906/1907 29004MPS OVC007 TEMPO 1907/1918 1100 -SHSN BR BKN004 BKN015CB TXM02/1912Z TNM05/1903Z

Decode

Departure Runways

ID Width Length Bearing (true) Bearing (mag) Surface Threshold Offset Overrun Length
13 148 ft / 45 m 8,300 ft / 2,530 m 136.09° 129.99° Asphalt 0 ft / 0 m 160 ft / 49 m
31 148 ft / 45 m 8,300 ft / 2,530 m 316.11° 310.01° Asphalt 0 ft / 0 m 145 ft / 44 m

LZTT

Details ICAO LZTT (TAT)
Name POPRAD TATRY
Region Slovakia
Timezone Europe/Bratislava (UTC+1.0)
Stats Elevation 2,355 ft / 718 m (AMSL)
Location 49.072159° 20.241258°
Runways 2
Magnetic Variation 5.172° E

METAR

LZTT 182030Z 27010KT 9999 FEW030 M10/M12 Q1022

Decode

TAF

Not found

Destination Runways

ID Width Length Bearing (true) Bearing (mag) Surface Threshold Offset Overrun Length
07 269 ft / 82 m 2,492 ft / 760 m 73.54° 68.37° Grass 0 ft / 0 m 0 ft / 0 m
09 148 ft / 45 m 8,478 ft / 2,584 m 94.19° 89.02° Concrete 0 ft / 0 m 0 ft / 0 m
25 269 ft / 82 m 2,492 ft / 760 m 253.55° 248.38° Grass 0 ft / 0 m 0 ft / 0 m
27 148 ft / 45 m 8,478 ft / 2,584 m 274.21° 269.04° Concrete 0 ft / 0 m 0 ft / 0 m

Approach Navaids

Runway Type Ident Frequency Range Bearing (true) Bearing (mag) Slope Elevation
27 Localiser TT 110.10 MHz 18 nm / 33 km 274.21° 269.04° - 2,279 ft / 695 m (AMSL)
27 Glidescope TT 110.10 MHz 10 nm / 19 km 274.20° 269.03° 3.50° 2,279 ft / 695 m (AMSL)

Popular Alternatives